createdAt,value
2023-09-02T00:01:23.910Z,20.48
2023-09-02T00:03:51.063Z,20.46
2023-09-02T00:06:18.234Z,20.44
2023-09-02T00:08:45.017Z,20.42
2023-09-02T00:11:12.468Z,20.39
2023-09-02T00:13:40.249Z,20.37
2023-09-02T00:16:07.143Z,20.34
2023-09-02T00:18:34.836Z,20.32
2023-09-02T00:21:01.942Z,20.31
2023-09-02T00:23:28.739Z,20.29
2023-09-02T00:25:55.865Z,20.24
2023-09-02T00:28:22.979Z,20.23
2023-09-02T00:30:50.088Z,20.18
2023-09-02T00:33:17.593Z,20.18
2023-09-02T00:35:44.938Z,20.16
2023-09-02T00:38:12.080Z,20.14
2023-09-02T00:40:43.778Z,20.10
2023-09-02T00:43:11.174Z,20.08
2023-09-02T00:45:39.019Z,20.04
2023-09-02T00:48:06.927Z,20.02
2023-09-02T00:50:36.728Z,19.98
2023-09-02T00:53:04.046Z,19.95
2023-09-02T00:55:31.655Z,19.92
2023-09-02T00:58:00.776Z,19.90
2023-09-02T01:00:27.572Z,19.88
2023-09-02T01:02:55.226Z,19.84
2023-09-02T01:05:23.359Z,19.80
2023-09-02T01:07:53.465Z,19.77
2023-09-02T01:10:20.674Z,19.74
2023-09-02T01:12:47.878Z,19.71
2023-09-02T01:15:15.011Z,19.69
2023-09-02T01:17:41.871Z,19.66
2023-09-02T01:20:13.013Z,19.60
2023-09-02T01:23:01.623Z,19.60
2023-09-02T01:25:54.033Z,19.56
2023-09-02T01:28:35.860Z,19.53
2023-09-02T01:31:07.080Z,19.52
2023-09-02T01:33:34.453Z,19.49
2023-09-02T01:36:02.512Z,19.45
2023-09-02T01:38:32.835Z,19.40
2023-09-02T01:41:03.365Z,19.38
2023-09-02T01:43:32.240Z,19.35
2023-09-02T01:45:59.733Z,19.30
2023-09-02T01:48:27.843Z,19.27
2023-09-02T01:50:55.652Z,19.23
2023-09-02T01:53:23.057Z,19.23
2023-09-02T01:55:51.319Z,19.21
2023-09-02T01:58:19.214Z,19.17
2023-09-02T02:00:46.129Z,19.13
2023-09-02T02:03:37.949Z,19.12
2023-09-02T02:06:08.924Z,19.07
2023-09-02T02:09:06.603Z,19.06
2023-09-02T02:11:38.170Z,19.02
2023-09-02T02:14:06.476Z,18.99
2023-09-02T02:16:33.952Z,18.98
2023-09-02T02:19:01.491Z,18.92
2023-09-02T02:21:30.417Z,18.92
2023-09-02T02:23:58.290Z,18.89
2023-09-02T02:26:25.650Z,18.87
2023-09-02T02:28:52.436Z,18.86
2023-09-02T02:31:19.702Z,18.82
2023-09-02T02:33:46.803Z,18.79
2023-09-02T02:36:13.982Z,18.78
2023-09-02T02:38:41.071Z,18.75
2023-09-02T02:41:08.481Z,18.72
2023-09-02T02:43:35.538Z,18.67
2023-09-02T02:46:03.081Z,18.64
2023-09-02T02:48:31.638Z,18.63
2023-09-02T02:50:59.107Z,18.61
2023-09-02T02:53:26.928Z,18.59
2023-09-02T02:55:53.738Z,18.58
2023-09-02T02:58:20.791Z,18.55
2023-09-02T03:00:51.549Z,18.53
2023-09-02T03:03:19.015Z,18.52
2023-09-02T03:05:46.059Z,18.48
2023-09-02T03:08:13.243Z,18.46
2023-09-02T03:10:40.683Z,18.45
2023-09-02T03:13:07.872Z,18.43
2023-09-02T03:15:35.186Z,18.41
2023-09-02T03:18:02.714Z,18.38
2023-09-02T03:20:29.869Z,18.36
2023-09-02T03:22:57.620Z,18.34
2023-09-02T03:25:25.578Z,18.30
2023-09-02T03:27:52.726Z,18.27
2023-09-02T03:30:20.620Z,18.23
2023-09-02T03:32:47.786Z,18.21
2023-09-02T03:35:14.912Z,18.18
2023-09-02T03:37:44.182Z,18.18
2023-09-02T03:40:11.542Z,18.14
2023-09-02T03:42:38.612Z,18.11
2023-09-02T03:45:06.240Z,18.09
2023-09-02T03:47:34.211Z,18.04
2023-09-02T03:50:01.100Z,18.03
2023-09-02T03:52:29.500Z,17.98
2023-09-02T03:54:57.411Z,17.98
2023-09-02T03:57:24.191Z,17.95
2023-09-02T03:59:51.699Z,17.93
2023-09-02T04:02:19.022Z,17.92
2023-09-02T04:04:46.296Z,17.89
2023-09-02T04:07:13.417Z,17.87
2023-09-02T04:09:41.043Z,17.85
2023-09-02T04:12:08.252Z,17.84
2023-09-02T04:14:35.770Z,17.81
2023-09-02T04:17:02.989Z,17.81
2023-09-02T04:19:30.092Z,17.79
2023-09-02T04:21:57.279Z,17.78
2023-09-02T04:24:24.370Z,17.76
2023-09-02T04:26:52.899Z,17.73
2023-09-02T04:29:20.296Z,17.72
2023-09-02T04:31:47.350Z,17.69
2023-09-02T04:34:14.115Z,17.68
2023-09-02T04:36:41.492Z,17.66
2023-09-02T04:39:09.162Z,17.66
2023-09-02T04:41:38.236Z,17.66
2023-09-02T04:44:05.301Z,17.65
2023-09-02T04:46:32.756Z,17.63
2023-09-02T04:48:59.899Z,17.61
2023-09-02T04:51:26.699Z,17.58
2023-09-02T04:53:54.085Z,17.58
2023-09-02T04:56:21.286Z,17.58
2023-09-02T04:58:48.097Z,17.56
2023-09-02T05:01:15.450Z,17.56
2023-09-02T05:03:42.557Z,17.57
2023-09-02T05:06:12.185Z,17.58
2023-09-02T05:08:39.413Z,17.58
2023-09-02T05:11:08.479Z,17.59
2023-09-02T05:13:35.772Z,17.60
2023-09-02T05:16:02.931Z,17.63
2023-09-02T05:18:29.932Z,17.64
2023-09-02T05:20:57.921Z,17.66
2023-09-02T05:23:25.124Z,17.67
2023-09-02T05:25:56.821Z,17.71
2023-09-02T05:28:24.618Z,17.74
2023-09-02T05:30:51.858Z,17.76
2023-09-02T05:33:19.431Z,17.79
2023-09-02T05:35:46.918Z,17.82
2023-09-02T05:38:13.816Z,17.84
2023-09-02T05:40:42.964Z,17.88
2023-09-02T05:43:11.209Z,17.92
2023-09-02T05:45:38.640Z,17.96
2023-09-02T05:48:06.225Z,17.99
2023-09-02T05:50:33.638Z,18.03
2023-09-02T05:53:01.273Z,18.07
2023-09-02T05:55:28.308Z,18.13
2023-09-02T05:57:55.833Z,18.17
2023-09-02T06:00:23.247Z,18.20
2023-09-02T06:02:50.434Z,18.26
2023-09-02T06:05:17.574Z,18.30
2023-09-02T06:07:44.705Z,18.33
2023-09-02T06:10:12.299Z,18.38
2023-09-02T06:12:39.157Z,18.43
2023-09-02T06:15:06.892Z,18.47
2023-09-02T06:17:35.266Z,18.51
2023-09-02T06:20:02.107Z,18.55
2023-09-02T06:22:29.448Z,18.59
2023-09-02T06:24:56.813Z,18.62
2023-09-02T06:27:24.037Z,18.69
2023-09-02T06:29:51.335Z,18.73
2023-09-02T06:32:18.204Z,18.78
2023-09-02T06:34:45.710Z,18.82
2023-09-02T06:37:12.541Z,18.88
2023-09-02T06:39:39.354Z,18.93
2023-09-02T06:42:06.857Z,18.97
2023-09-02T06:44:33.666Z,19.04
2023-09-02T06:47:00.794Z,19.09
2023-09-02T06:49:27.939Z,19.13
2023-09-02T06:51:55.089Z,19.18
2023-09-02T06:54:21.889Z,19.26
2023-09-02T06:56:49.391Z,19.31
2023-09-02T06:59:16.462Z,19.37
2023-09-02T07:01:43.221Z,19.42
2023-09-02T07:04:10.623Z,19.47
2023-09-02T07:06:37.815Z,19.54
2023-09-02T07:09:05.275Z,19.58
2023-09-02T07:11:32.090Z,19.63
2023-09-02T07:14:00.418Z,19.69
2023-09-02T07:16:27.925Z,19.76
2023-09-02T07:18:55.940Z,19.80
2023-09-02T07:21:24.492Z,19.86
2023-09-02T07:23:54.958Z,19.92
2023-09-02T07:26:24.672Z,19.99
2023-09-02T07:28:51.814Z,20.05
2023-09-02T07:31:19.461Z,20.11
2023-09-02T07:33:46.341Z,20.17
2023-09-02T07:36:14.981Z,20.23
2023-09-02T07:38:42.725Z,20.30
2023-09-02T07:41:11.081Z,20.36
2023-09-02T07:43:38.369Z,20.44
2023-09-02T07:46:05.939Z,20.51
2023-09-02T07:48:33.157Z,20.56
2023-09-02T07:51:02.253Z,20.63
2023-09-02T07:53:30.542Z,20.70
2023-09-02T07:55:57.806Z,20.77
2023-09-02T07:58:24.791Z,20.87
2023-09-02T08:00:52.009Z,20.93
2023-09-02T08:03:19.608Z,21.01
2023-09-02T08:05:47.293Z,21.07
2023-09-02T08:08:15.098Z,21.15
2023-09-02T08:10:42.308Z,21.23
2023-09-02T08:13:10.693Z,21.30
2023-09-02T08:15:39.563Z,21.38
2023-09-02T08:18:07.200Z,21.45
2023-09-02T08:20:37.197Z,21.53
2023-09-02T08:23:04.977Z,21.62
2023-09-02T08:25:31.781Z,21.70
2023-09-02T08:27:58.921Z,21.76
2023-09-02T08:30:26.108Z,21.85
2023-09-02T08:32:53.421Z,21.92
2023-09-02T08:35:20.285Z,21.99
2023-09-02T08:37:47.813Z,22.08
2023-09-02T08:40:15.838Z,22.17
2023-09-02T08:42:43.313Z,22.25
2023-09-02T08:45:10.850Z,22.34
2023-09-02T08:47:40.561Z,22.43
2023-09-02T08:50:11.469Z,22.51
2023-09-02T08:52:39.005Z,22.61
2023-09-02T08:55:10.847Z,22.69
2023-09-02T08:57:40.861Z,22.76
2023-09-02T09:00:08.463Z,22.86
2023-09-02T09:02:35.942Z,22.94
2023-09-02T09:05:04.354Z,23.02
2023-09-02T09:07:32.052Z,23.11
2023-09-02T09:10:03.078Z,23.19
2023-09-02T09:12:33.421Z,23.28
2023-09-02T09:15:02.981Z,23.38
2023-09-02T09:17:33.069Z,23.46
2023-09-02T09:20:01.704Z,23.54
2023-09-02T09:22:28.728Z,23.63
2023-09-02T09:24:56.435Z,23.70
2023-09-02T09:27:23.332Z,23.78
2023-09-02T09:29:50.454Z,23.86
2023-09-02T09:32:19.795Z,23.95
2023-09-02T09:34:47.895Z,24.03
2023-09-02T09:37:15.518Z,24.10
2023-09-02T09:39:48.827Z,24.18
2023-09-02T09:42:16.798Z,24.27
2023-09-02T09:44:55.560Z,24.35
2023-09-02T09:47:24.184Z,24.42
2023-09-02T09:49:51.937Z,24.49
2023-09-02T09:52:20.812Z,24.57
2023-09-02T09:54:50.257Z,24.66
2023-09-02T09:57:36.780Z,24.73
2023-09-02T10:00:06.827Z,24.83
2023-09-02T10:02:34.777Z,24.92
2023-09-02T10:05:03.429Z,24.99
2023-09-02T10:07:33.314Z,25.06
2023-09-02T10:10:02.630Z,25.13
2023-09-02T10:12:37.577Z,25.21
2023-09-02T10:15:07.314Z,25.28
2023-09-02T10:17:37.097Z,25.36
2023-09-02T10:20:04.237Z,25.44
2023-09-02T10:22:33.060Z,25.52
2023-09-02T10:25:09.160Z,25.59
2023-09-02T10:27:42.130Z,25.68
2023-09-02T10:30:37.109Z,25.77
2023-09-02T10:33:17.158Z,25.86
2023-09-02T10:35:52.410Z,25.96
2023-09-02T10:38:22.947Z,26.07
2023-09-02T10:41:02.647Z,26.18
2023-09-02T10:43:29.945Z,26.28
2023-09-02T10:45:57.600Z,26.39
2023-09-02T10:48:25.086Z,26.47
2023-09-02T10:50:53.030Z,26.56
2023-09-02T10:53:20.502Z,26.64
2023-09-02T10:56:01.899Z,26.72
2023-09-02T10:58:46.974Z,26.82
2023-09-02T11:01:14.528Z,26.90
2023-09-02T11:03:49.686Z,26.97
2023-09-02T11:06:17.170Z,27.07
2023-09-02T11:08:45.439Z,27.14
2023-09-02T11:11:14.187Z,27.22
2023-09-02T11:14:10.631Z,27.31
2023-09-02T11:16:43.548Z,27.40
2023-09-02T11:19:10.808Z,27.47
2023-09-02T11:21:40.432Z,27.57
2023-09-02T11:24:20.949Z,27.63
2023-09-02T11:26:55.944Z,27.71
2023-09-02T11:29:24.090Z,27.78
2023-09-02T11:31:59.629Z,27.83
2023-09-02T11:34:30.775Z,27.91
2023-09-02T11:37:02.369Z,27.97
2023-09-02T11:39:31.071Z,28.05
2023-09-02T11:42:10.923Z,28.13
2023-09-02T11:44:38.831Z,28.22
2023-09-02T11:47:08.368Z,28.29
2023-09-02T11:49:36.678Z,28.37
2023-09-02T11:52:03.882Z,28.43
2023-09-02T11:54:31.476Z,28.51
2023-09-02T11:57:02.281Z,28.56
2023-09-02T11:59:30.626Z,28.60
2023-09-02T12:02:15.859Z,28.66
2023-09-02T12:04:45.978Z,28.72
2023-09-02T12:07:13.235Z,28.80
2023-09-02T12:09:40.348Z,28.88
2023-09-02T12:12:08.085Z,28.94
2023-09-02T12:14:37.220Z,29.00
2023-09-02T12:17:06.014Z,29.07
2023-09-02T12:19:34.966Z,29.15
2023-09-02T12:22:02.132Z,29.22
2023-09-02T12:24:31.289Z,29.29
2023-09-02T12:26:58.853Z,29.38
2023-09-02T12:29:26.769Z,29.44
2023-09-02T12:31:58.655Z,29.54
2023-09-02T12:34:27.232Z,29.61
2023-09-02T12:36:54.728Z,29.69
2023-09-02T12:39:27.556Z,29.74
2023-09-02T12:41:55.191Z,29.82
2023-09-02T12:44:22.386Z,29.87
2023-09-02T12:46:51.313Z,29.92
2023-09-02T12:49:18.887Z,30.00
2023-09-02T12:51:46.402Z,30.05
2023-09-02T12:54:15.184Z,30.10
2023-09-02T12:56:42.513Z,30.15
2023-09-02T12:59:09.708Z,30.21
2023-09-02T13:01:40.668Z,30.23
2023-09-02T13:04:08.157Z,30.29
2023-09-02T13:06:35.288Z,30.32
2023-09-02T13:09:02.787Z,30.39
2023-09-02T13:11:30.043Z,30.43
2023-09-02T13:13:56.924Z,30.47
2023-09-02T13:16:26.233Z,30.53
2023-09-02T13:18:54.074Z,30.57
2023-09-02T13:21:20.919Z,30.61
2023-09-02T13:23:50.445Z,30.65
2023-09-02T13:26:20.905Z,30.69
2023-09-02T13:28:48.741Z,30.73
2023-09-02T13:31:16.223Z,30.76
2023-09-02T13:33:44.063Z,30.79
2023-09-02T13:36:13.035Z,30.83
2023-09-02T13:38:41.683Z,30.88
2023-09-02T13:41:11.410Z,30.92
2023-09-02T13:43:39.993Z,30.96
2023-09-02T13:46:09.077Z,31.01
2023-09-02T13:48:36.439Z,31.05
2023-09-02T13:51:05.756Z,31.12
2023-09-02T13:53:38.035Z,31.19
2023-09-02T13:56:05.844Z,31.23
2023-09-02T13:58:36.949Z,31.28
2023-09-02T14:01:05.174Z,31.33
2023-09-02T14:03:33.355Z,31.35
2023-09-02T14:06:05.080Z,31.40
2023-09-02T14:08:40.655Z,31.42
2023-09-02T14:11:08.112Z,31.44
2023-09-02T14:13:41.003Z,31.46
2023-09-02T14:16:09.546Z,31.49
2023-09-02T14:18:36.937Z,31.50
2023-09-02T14:21:04.091Z,31.50
2023-09-02T14:23:34.054Z,31.51
2023-09-02T14:26:01.899Z,31.53
2023-09-02T14:28:29.452Z,31.53
2023-09-02T14:30:57.609Z,31.53
2023-09-02T14:33:25.449Z,31.54
2023-09-02T14:35:52.382Z,31.55
2023-09-02T14:38:22.163Z,31.56
2023-09-02T14:40:50.100Z,31.56
2023-09-02T14:43:17.460Z,31.56
2023-09-02T14:45:45.579Z,31.58
2023-09-02T14:48:13.706Z,31.60
2023-09-02T14:50:42.677Z,31.62
2023-09-02T14:53:10.016Z,31.64
2023-09-02T14:55:39.123Z,31.65
2023-09-02T14:58:06.210Z,31.64
2023-09-02T15:00:33.159Z,31.61
2023-09-02T15:03:03.073Z,31.59
2023-09-02T15:05:35.032Z,31.56
2023-09-02T15:08:07.070Z,31.53
2023-09-02T15:10:37.190Z,31.47
2023-09-02T15:13:05.349Z,31.40
2023-09-02T15:15:43.266Z,31.35
2023-09-02T15:18:26.648Z,31.28
2023-09-02T15:20:54.519Z,31.21
2023-09-02T15:23:22.898Z,31.14
2023-09-02T15:25:58.215Z,31.08
2023-09-02T15:28:26.024Z,31.02
2023-09-02T15:30:53.364Z,30.95
2023-09-02T15:33:21.895Z,30.89
2023-09-02T15:35:49.606Z,30.82
2023-09-02T15:38:19.076Z,30.77
2023-09-02T15:40:46.554Z,30.70
2023-09-02T15:43:13.895Z,30.64
2023-09-02T15:45:41.942Z,30.58
2023-09-02T15:48:09.678Z,30.53
2023-09-02T15:50:37.399Z,30.47
2023-09-02T15:53:04.680Z,30.43
2023-09-02T15:55:31.940Z,30.37
2023-09-02T15:57:59.807Z,30.33
2023-09-02T16:00:27.373Z,30.28
2023-09-02T16:02:54.856Z,30.24
2023-09-02T16:05:22.478Z,30.21
2023-09-02T16:07:51.414Z,30.16
2023-09-02T16:10:18.836Z,30.14
2023-09-02T16:12:46.495Z,30.11
2023-09-02T16:15:15.676Z,30.08
2023-09-02T16:17:43.072Z,30.05
2023-09-02T16:20:12.108Z,30.00
2023-09-02T16:22:41.697Z,29.96
2023-09-02T16:25:12.542Z,29.92
2023-09-02T16:27:41.139Z,29.89
2023-09-02T16:30:11.670Z,29.85
2023-09-02T16:32:39.180Z,29.80
2023-09-02T16:35:08.049Z,29.77
2023-09-02T16:37:42.572Z,29.72
2023-09-02T16:40:13.256Z,29.66
2023-09-02T16:42:43.759Z,29.60
2023-09-02T16:45:13.344Z,29.54
2023-09-02T16:47:45.989Z,29.50
2023-09-02T16:50:15.598Z,29.45
2023-09-02T16:52:47.489Z,29.38
2023-09-02T16:55:17.830Z,29.31
2023-09-02T16:57:51.281Z,29.28
2023-09-02T17:00:22.535Z,29.20
2023-09-02T17:02:54.295Z,29.13
2023-09-02T17:05:24.595Z,29.07
2023-09-02T17:07:54.858Z,28.98
2023-09-02T17:10:25.291Z,28.93
2023-09-02T17:12:53.656Z,28.88
2023-09-02T17:15:31.491Z,28.83
2023-09-02T17:17:59.782Z,28.77
2023-09-02T17:20:34.088Z,28.72
2023-09-02T17:23:10.526Z,28.66
2023-09-02T17:25:40.042Z,28.59
2023-09-02T17:28:09.466Z,28.54
2023-09-02T17:30:39.435Z,28.49
2023-09-02T17:33:06.658Z,28.43
2023-09-02T17:35:33.594Z,28.36
2023-09-02T17:38:01.987Z,28.31
2023-09-02T17:40:32.314Z,28.26
2023-09-02T17:43:00.995Z,28.18
2023-09-02T17:45:28.676Z,28.10
2023-09-02T17:47:56.491Z,28.06
2023-09-02T17:50:24.178Z,28.01
2023-09-02T17:52:51.849Z,27.94
2023-09-02T17:55:20.120Z,27.87
2023-09-02T17:57:47.968Z,27.80
2023-09-02T18:00:16.305Z,27.75
2023-09-02T18:02:44.810Z,27.69
2023-09-02T18:05:13.446Z,27.62
2023-09-02T18:07:41.414Z,27.57
2023-09-02T18:10:10.600Z,27.51
2023-09-02T18:12:39.385Z,27.44
2023-09-02T18:15:09.206Z,27.36
2023-09-02T18:17:37.015Z,27.31
2023-09-02T18:20:06.120Z,27.23
2023-09-02T18:22:33.501Z,27.17
2023-09-02T18:25:01.122Z,27.13
2023-09-02T18:27:28.815Z,27.09
2023-09-02T18:29:56.256Z,27.07
2023-09-02T18:32:23.886Z,27.06
2023-09-02T18:34:51.539Z,27.01
2023-09-02T18:37:20.913Z,26.98
2023-09-02T18:39:49.092Z,26.93
2023-09-02T18:42:16.181Z,26.90
2023-09-02T18:44:44.410Z,26.86
2023-09-02T18:47:12.374Z,26.83
2023-09-02T18:49:40.167Z,26.80
2023-09-02T18:52:07.818Z,26.76
2023-09-02T18:54:35.632Z,26.72
2023-09-02T18:57:03.895Z,26.65
2023-09-02T18:59:34.315Z,26.61
2023-09-02T19:02:02.551Z,26.57
2023-09-02T19:04:30.379Z,26.54
2023-09-02T19:06:57.748Z,26.50
2023-09-02T19:09:25.457Z,26.47
2023-09-02T19:11:52.979Z,26.42
2023-09-02T19:14:20.362Z,26.40
2023-09-02T19:16:48.663Z,26.36
2023-09-02T19:19:16.335Z,26.30
2023-09-02T19:21:45.116Z,26.27
2023-09-02T19:24:12.728Z,26.23
2023-09-02T19:26:41.644Z,26.19
2023-09-02T19:29:09.428Z,26.17
2023-09-02T19:31:37.713Z,26.11
2023-09-02T19:34:07.240Z,26.06
2023-09-02T19:36:34.636Z,26.01
2023-09-02T19:39:05.102Z,25.95
2023-09-02T19:41:33.961Z,25.92
2023-09-02T19:44:01.754Z,25.89
2023-09-02T19:46:30.288Z,25.88
2023-09-02T19:48:57.786Z,25.83
2023-09-02T19:51:25.951Z,25.80
2023-09-02T19:53:54.997Z,25.75
2023-09-02T19:56:22.320Z,25.70
2023-09-02T19:59:00.968Z,25.67
2023-09-02T20:01:31.611Z,25.60
2023-09-02T20:03:59.787Z,25.57
2023-09-02T20:06:28.170Z,25.54
2023-09-02T20:08:56.217Z,25.50
2023-09-02T20:11:23.582Z,25.48
2023-09-02T20:13:52.328Z,25.46
2023-09-02T20:16:19.804Z,25.40
2023-09-02T20:18:47.334Z,25.37
2023-09-02T20:21:14.746Z,25.33
2023-09-02T20:23:42.179Z,25.31
2023-09-02T20:26:15.638Z,25.25
2023-09-02T20:28:43.380Z,25.21
2023-09-02T20:31:21.121Z,25.15
2023-09-02T20:33:53.257Z,25.09
2023-09-02T20:36:21.623Z,25.03
2023-09-02T20:38:50.198Z,24.98
2023-09-02T20:41:23.107Z,24.96
2023-09-02T20:43:50.496Z,24.92
2023-09-02T20:46:18.178Z,24.89
2023-09-02T20:48:45.646Z,24.84
2023-09-02T20:51:13.095Z,24.83
2023-09-02T20:53:41.887Z,24.77
2023-09-02T20:56:12.223Z,24.74
2023-09-02T20:58:40.686Z,24.70
2023-09-02T21:01:08.877Z,24.66
2023-09-02T21:03:36.463Z,24.64
2023-09-02T21:06:07.635Z,24.58
2023-09-02T21:08:34.772Z,24.57
2023-09-02T21:11:10.416Z,24.52
2023-09-02T21:13:39.582Z,24.49
2023-09-02T21:16:11.906Z,24.46
2023-09-02T21:18:39.412Z,24.41
2023-09-02T21:21:07.063Z,24.38
2023-09-02T21:23:33.958Z,24.33
2023-09-02T21:26:11.587Z,24.28
2023-09-02T21:28:40.057Z,24.23
2023-09-02T21:31:08.542Z,24.16
2023-09-02T21:33:36.908Z,24.14
2023-09-02T21:36:04.447Z,24.08
2023-09-02T21:38:32.390Z,24.05
2023-09-02T21:41:06.973Z,24.01
2023-09-02T21:43:37.195Z,23.95
2023-09-02T21:46:09.048Z,23.95
2023-09-02T21:48:47.667Z,23.89
2023-09-02T21:51:15.473Z,23.83
2023-09-02T21:53:44.041Z,23.78
2023-09-02T21:56:11.789Z,23.76
2023-09-02T21:58:39.936Z,23.73
2023-09-02T22:01:12.557Z,23.68
2023-09-02T22:03:40.481Z,23.64
2023-09-02T22:06:09.958Z,23.57
2023-09-02T22:08:46.325Z,23.54
2023-09-02T22:11:14.667Z,23.51
2023-09-02T22:13:45.012Z,23.45
2023-09-02T22:16:13.270Z,23.42
2023-09-02T22:18:46.376Z,23.38
2023-09-02T22:21:19.862Z,23.33
2023-09-02T22:23:47.334Z,23.29
2023-09-02T22:26:14.120Z,23.24
2023-09-02T22:28:41.263Z,23.20
2023-09-02T22:31:08.389Z,23.17
2023-09-02T22:33:36.217Z,23.12
2023-09-02T22:36:03.368Z,23.08
2023-09-02T22:38:54.865Z,23.04
2023-09-02T22:41:21.991Z,22.98
2023-09-02T22:43:49.156Z,22.95
2023-09-02T22:46:16.900Z,22.90
2023-09-02T22:48:43.778Z,22.88
2023-09-02T22:51:11.251Z,22.83
2023-09-02T22:53:40.163Z,22.78
2023-09-02T22:56:12.470Z,22.74
2023-09-02T22:58:39.675Z,22.72
2023-09-02T23:01:09.758Z,22.67
2023-09-02T23:03:37.378Z,22.63
2023-09-02T23:06:12.432Z,22.59
2023-09-02T23:08:40.516Z,22.55
2023-09-02T23:11:07.469Z,22.53
2023-09-02T23:13:34.483Z,22.48
2023-09-02T23:16:05.817Z,22.45
2023-09-02T23:18:34.063Z,22.43
2023-09-02T23:21:16.849Z,22.40
2023-09-02T23:23:45.129Z,22.35
2023-09-02T23:26:12.461Z,22.33
2023-09-02T23:28:40.751Z,22.29
2023-09-02T23:31:08.592Z,22.24
2023-09-02T23:33:36.338Z,22.20
2023-09-02T23:36:04.471Z,22.16
2023-09-02T23:38:31.988Z,22.12
2023-09-02T23:40:59.322Z,22.08
2023-09-02T23:43:26.101Z,22.04
2023-09-02T23:45:54.253Z,22.00
2023-09-02T23:48:22.496Z,21.97
2023-09-02T23:50:50.912Z,21.98
2023-09-02T23:53:19.411Z,21.91
2023-09-02T23:55:47.391Z,21.89
2023-09-02T23:58:14.536Z,21.85
